sensor_id;sensor_type;location;lat;lon;timestamp;temperature;humidity
25582;DHT22;13462;50.764;4.332;2024-03-02T00:02:25;6.20;99.90
25582;DHT22;13462;50.764;4.332;2024-03-02T00:04:51;6.10;99.90
25582;DHT22;13462;50.764;4.332;2024-03-02T00:07:17;6.10;99.90
25582;DHT22;13462;50.764;4.332;2024-03-02T00:09:42;6.10;99.90
25582;DHT22;13462;50.764;4.332;2024-03-02T00:12:10;6.10;99.90
25582;DHT22;13462;50.764;4.332;2024-03-02T00:14:37;6.10;99.90
25582;DHT22;13462;50.764;4.332;2024-03-02T00:17:02;6.10;99.90
25582;DHT22;13462;50.764;4.332;2024-03-02T00:19:28;6.10;99.90
25582;DHT22;13462;50.764;4.332;2024-03-02T00:21:54;6.20;99.90
25582;DHT22;13462;50.764;4.332;2024-03-02T00:24:33;6.20;99.90
25582;DHT22;13462;50.764;4.332;2024-03-02T00:26:59;6.20;99.90
25582;DHT22;13462;50.764;4.332;2024-03-02T00:29:25;6.30;99.90
25582;DHT22;13462;50.764;4.332;2024-03-02T00:31:51;6.20;99.90
25582;DHT22;13462;50.764;4.332;2024-03-02T00:34:17;6.10;99.90
25582;DHT22;13462;50.764;4.332;2024-03-02T00:36:43;6.20;99.90
25582;DHT22;13462;50.764;4.332;2024-03-02T00:39:08;6.20;99.90
25582;DHT22;13462;50.764;4.332;2024-03-02T00:41:41;6.20;99.90
25582;DHT22;13462;50.764;4.332;2024-03-02T00:44:09;6.30;99.90
25582;DHT22;13462;50.764;4.332;2024-03-02T00:46:39;6.20;99.90
25582;DHT22;13462;50.764;4.332;2024-03-02T00:49:18;6.20;99.90
25582;DHT22;13462;50.764;4.332;2024-03-02T00:51:46;6.30;99.90
25582;DHT22;13462;50.764;4.332;2024-03-02T00:54:14;6.30;99.90
25582;DHT22;13462;50.764;4.332;2024-03-02T00:56:41;6.20;99.90
25582;DHT22;13462;50.764;4.332;2024-03-02T00:59:07;6.20;99.90
25582;DHT22;13462;50.764;4.332;2024-03-02T01:01:34;6.20;99.90
25582;DHT22;13462;50.764;4.332;2024-03-02T01:04:00;6.20;99.90
25582;DHT22;13462;50.764;4.332;2024-03-02T01:06:25;6.30;99.90
25582;DHT22;13462;50.764;4.332;2024-03-02T01:08:51;6.20;99.90
25582;DHT22;13462;50.764;4.332;2024-03-02T01:11:18;6.20;99.90
25582;DHT22;13462;50.764;4.332;2024-03-02T01:13:44;6.10;99.90
25582;DHT22;13462;50.764;4.332;2024-03-02T01:16:10;6.20;99.90
25582;DHT22;13462;50.764;4.332;2024-03-02T01:18:36;6.10;99.90
25582;DHT22;13462;50.764;4.332;2024-03-02T01:21:01;6.10;99.90
25582;DHT22;13462;50.764;4.332;2024-03-02T01:23:27;6.20;99.90
25582;DHT22;13462;50.764;4.332;2024-03-02T01:25:53;6.10;99.90
25582;DHT22;13462;50.764;4.332;2024-03-02T01:28:19;6.10;99.90
25582;DHT22;13462;50.764;4.332;2024-03-02T01:30:46;6.10;99.90
25582;DHT22;13462;50.764;4.332;2024-03-02T01:33:12;6.20;99.90
25582;DHT22;13462;50.764;4.332;2024-03-02T01:35:38;6.20;99.90
25582;DHT22;13462;50.764;4.332;2024-03-02T01:38:04;6.20;99.90
25582;DHT22;13462;50.764;4.332;2024-03-02T01:40:32;6.20;99.90
25582;DHT22;13462;50.764;4.332;2024-03-02T01:42:58;6.20;99.90
25582;DHT22;13462;50.764;4.332;2024-03-02T01:45:24;6.20;99.90
25582;DHT22;13462;50.764;4.332;2024-03-02T01:47:50;6.30;99.90
25582;DHT22;13462;50.764;4.332;2024-03-02T01:50:23;6.20;99.90
25582;DHT22;13462;50.764;4.332;2024-03-02T01:52:49;6.30;99.90
25582;DHT22;13462;50.764;4.332;2024-03-02T01:55:15;6.20;99.90
25582;DHT22;13462;50.764;4.332;2024-03-02T01:57:41;6.30;99.90
25582;DHT22;13462;50.764;4.332;2024-03-02T02:00:07;6.20;99.90
25582;DHT22;13462;50.764;4.332;2024-03-02T02:02:32;6.30;99.90
25582;DHT22;13462;50.764;4.332;2024-03-02T02:04:58;6.30;99.90
25582;DHT22;13462;50.764;4.332;2024-03-02T02:07:24;6.30;99.90
25582;DHT22;13462;50.764;4.332;2024-03-02T02:09:49;6.40;99.90
25582;DHT22;13462;50.764;4.332;2024-03-02T02:12:15;6.40;99.90
25582;DHT22;13462;50.764;4.332;2024-03-02T02:14:47;6.40;99.90
25582;DHT22;13462;50.764;4.332;2024-03-02T02:17:14;6.30;99.90
25582;DHT22;13462;50.764;4.332;2024-03-02T02:19:40;6.40;99.90
25582;DHT22;13462;50.764;4.332;2024-03-02T02:22:06;6.40;99.90
25582;DHT22;13462;50.764;4.332;2024-03-02T02:24:32;6.50;99.90
25582;DHT22;13462;50.764;4.332;2024-03-02T02:26:57;6.40;99.90
25582;DHT22;13462;50.764;4.332;2024-03-02T02:29:23;6.40;99.90
25582;DHT22;13462;50.764;4.332;2024-03-02T02:31:48;6.40;99.90
25582;DHT22;13462;50.764;4.332;2024-03-02T02:34:14;6.40;99.90
25582;DHT22;13462;50.764;4.332;2024-03-02T02:36:41;6.40;99.90
25582;DHT22;13462;50.764;4.332;2024-03-02T02:39:11;6.50;99.90
25582;DHT22;13462;50.764;4.332;2024-03-02T02:41:38;6.40;99.90
25582;DHT22;13462;50.764;4.332;2024-03-02T02:44:04;6.40;99.90
25582;DHT22;13462;50.764;4.332;2024-03-02T02:46:30;6.40;99.90
25582;DHT22;13462;50.764;4.332;2024-03-02T02:48:55;6.50;99.90
25582;DHT22;13462;50.764;4.332;2024-03-02T02:51:21;6.50;99.90
25582;DHT22;13462;50.764;4.332;2024-03-02T02:53:47;6.50;99.90
25582;DHT22;13462;50.764;4.332;2024-03-02T02:56:12;6.50;99.90
25582;DHT22;13462;50.764;4.332;2024-03-02T02:58:40;6.40;99.90
25582;DHT22;13462;50.764;4.332;2024-03-02T03:01:07;6.30;99.90
25582;DHT22;13462;50.764;4.332;2024-03-02T03:03:33;6.30;99.90
25582;DHT22;13462;50.764;4.332;2024-03-02T03:05:58;6.20;99.90
25582;DHT22;13462;50.764;4.332;2024-03-02T03:08:24;6.10;99.90
25582;DHT22;13462;50.764;4.332;2024-03-02T03:10:50;6.00;99.90
25582;DHT22;13462;50.764;4.332;2024-03-02T03:13:15;6.10;99.90
25582;DHT22;13462;50.764;4.332;2024-03-02T03:15:41;6.10;99.90
25582;DHT22;13462;50.764;4.332;2024-03-02T03:18:06;6.20;99.90
25582;DHT22;13462;50.764;4.332;2024-03-02T03:20:35;6.30;99.90
25582;DHT22;13462;50.764;4.332;2024-03-02T03:23:01;6.30;99.90
25582;DHT22;13462;50.764;4.332;2024-03-02T03:25:27;6.30;99.90
25582;DHT22;13462;50.764;4.332;2024-03-02T03:27:52;6.30;99.90
25582;DHT22;13462;50.764;4.332;2024-03-02T03:30:18;6.40;99.90
25582;DHT22;13462;50.764;4.332;2024-03-02T03:32:44;6.40;99.90
25582;DHT22;13462;50.764;4.332;2024-03-02T03:35:09;6.40;99.90
25582;DHT22;13462;50.764;4.332;2024-03-02T03:37:35;6.40;99.90
25582;DHT22;13462;50.764;4.332;2024-03-02T03:40:02;6.50;99.90
25582;DHT22;13462;50.764;4.332;2024-03-02T03:42:28;6.50;99.90
25582;DHT22;13462;50.764;4.332;2024-03-02T03:44:54;6.40;99.90
25582;DHT22;13462;50.764;4.332;2024-03-02T03:47:19;6.40;99.90
25582;DHT22;13462;50.764;4.332;2024-03-02T03:49:45;6.40;99.90
25582;DHT22;13462;50.764;4.332;2024-03-02T03:52:11;6.40;99.90
25582;DHT22;13462;50.764;4.332;2024-03-02T03:54:37;6.40;99.90
25582;DHT22;13462;50.764;4.332;2024-03-02T03:57:04;6.40;99.90
25582;DHT22;13462;50.764;4.332;2024-03-02T03:59:29;6.30;99.90
25582;DHT22;13462;50.764;4.332;2024-03-02T04:01:55;6.30;99.90
25582;DHT22;13462;50.764;4.332;2024-03-02T04:04:21;6.30;99.90
25582;DHT22;13462;50.764;4.332;2024-03-02T04:06:46;6.20;99.90
25582;DHT22;13462;50.764;4.332;2024-03-02T04:09:12;6.20;99.90
25582;DHT22;13462;50.764;4.332;2024-03-02T04:11:38;6.30;99.90
25582;DHT22;13462;50.764;4.332;2024-03-02T04:14:03;6.30;99.90
25582;DHT22;13462;50.764;4.332;2024-03-02T04:16:31;6.30;99.90
25582;DHT22;13462;50.764;4.332;2024-03-02T04:18:57;6.30;99.90
25582;DHT22;13462;50.764;4.332;2024-03-02T04:21:22;6.30;99.90
25582;DHT22;13462;50.764;4.332;2024-03-02T04:23:48;6.30;99.90
25582;DHT22;13462;50.764;4.332;2024-03-02T04:26:14;6.30;99.90
25582;DHT22;13462;50.764;4.332;2024-03-02T04:28:40;6.30;99.90
25582;DHT22;13462;50.764;4.332;2024-03-02T04:31:06;6.10;99.90
25582;DHT22;13462;50.764;4.332;2024-03-02T04:33:31;6.00;99.90
25582;DHT22;13462;50.764;4.332;2024-03-02T04:35:57;6.10;99.90
25582;DHT22;13462;50.764;4.332;2024-03-02T04:38:23;6.10;99.90
25582;DHT22;13462;50.764;4.332;2024-03-02T04:40:48;6.20;99.90
25582;DHT22;13462;50.764;4.332;2024-03-02T04:43:14;6.20;99.90
25582;DHT22;13462;50.764;4.332;2024-03-02T04:45:42;6.10;99.90
25582;DHT22;13462;50.764;4.332;2024-03-02T04:48:08;6.10;99.90
25582;DHT22;13462;50.764;4.332;2024-03-02T04:50:34;6.00;99.90
25582;DHT22;13462;50.764;4.332;2024-03-02T04:52:59;5.90;99.90
25582;DHT22;13462;50.764;4.332;2024-03-02T04:55:25;5.90;99.90
25582;DHT22;13462;50.764;4.332;2024-03-02T04:58:10;5.80;99.90
25582;DHT22;13462;50.764;4.332;2024-03-02T05:00:36;5.80;99.90
25582;DHT22;13462;50.764;4.332;2024-03-02T05:03:02;5.80;99.90
25582;DHT22;13462;50.764;4.332;2024-03-02T05:05:28;5.70;99.90
25582;DHT22;13462;50.764;4.332;2024-03-02T05:07:54;5.80;99.90
25582;DHT22;13462;50.764;4.332;2024-03-02T05:10:19;5.80;99.90
25582;DHT22;13462;50.764;4.332;2024-03-02T05:12:45;5.80;99.90
25582;DHT22;13462;50.764;4.332;2024-03-02T05:15:12;5.70;99.90
25582;DHT22;13462;50.764;4.332;2024-03-02T05:17:39;5.70;99.90
25582;DHT22;13462;50.764;4.332;2024-03-02T05:20:06;5.60;99.90
25582;DHT22;13462;50.764;4.332;2024-03-02T05:22:33;5.60;99.90
25582;DHT22;13462;50.764;4.332;2024-03-02T05:25:00;5.60;99.90
25582;DHT22;13462;50.764;4.332;2024-03-02T05:27:29;5.60;99.90
25582;DHT22;13462;50.764;4.332;2024-03-02T05:29:55;5.50;99.90
25582;DHT22;13462;50.764;4.332;2024-03-02T05:32:21;5.50;99.90
25582;DHT22;13462;50.764;4.332;2024-03-02T05:34:46;5.40;99.90
25582;DHT22;13462;50.764;4.332;2024-03-02T05:37:12;5.50;99.90
25582;DHT22;13462;50.764;4.332;2024-03-02T05:39:37;5.40;99.90
25582;DHT22;13462;50.764;4.332;2024-03-02T05:42:03;5.40;99.90
25582;DHT22;13462;50.764;4.332;2024-03-02T05:44:29;5.40;99.90
25582;DHT22;13462;50.764;4.332;2024-03-02T05:46:55;5.40;99.90
25582;DHT22;13462;50.764;4.332;2024-03-02T05:49:21;5.50;99.90
25582;DHT22;13462;50.764;4.332;2024-03-02T05:51:46;5.40;99.90
25582;DHT22;13462;50.764;4.332;2024-03-02T05:54:12;5.40;99.90
25582;DHT22;13462;50.764;4.332;2024-03-02T05:56:38;5.40;99.90
25582;DHT22;13462;50.764;4.332;2024-03-02T05:59:03;5.40;99.90
25582;DHT22;13462;50.764;4.332;2024-03-02T06:01:39;5.40;99.90
25582;DHT22;13462;50.764;4.332;2024-03-02T06:04:05;5.40;99.90
25582;DHT22;13462;50.764;4.332;2024-03-02T06:06:30;5.30;99.90
25582;DHT22;13462;50.764;4.332;2024-03-02T06:08:57;5.40;99.90
25582;DHT22;13462;50.764;4.332;2024-03-02T06:11:24;5.40;99.90
25582;DHT22;13462;50.764;4.332;2024-03-02T06:13:50;5.40;99.90
25582;DHT22;13462;50.764;4.332;2024-03-02T06:16:15;5.30;99.90
25582;DHT22;13462;50.764;4.332;2024-03-02T06:18:41;5.30;99.90
25582;DHT22;13462;50.764;4.332;2024-03-02T06:21:06;5.40;99.90
25582;DHT22;13462;50.764;4.332;2024-03-02T06:23:32;5.40;99.90
25582;DHT22;13462;50.764;4.332;2024-03-02T06:25:57;5.30;99.90
25582;DHT22;13462;50.764;4.332;2024-03-02T06:28:23;5.30;99.90
25582;DHT22;13462;50.764;4.332;2024-03-02T06:30:49;5.30;99.90
25582;DHT22;13462;50.764;4.332;2024-03-02T06:33:14;5.30;99.90
25582;DHT22;13462;50.764;4.332;2024-03-02T06:35:40;5.20;99.90
25582;DHT22;13462;50.764;4.332;2024-03-02T06:38:06;5.30;99.90
25582;DHT22;13462;50.764;4.332;2024-03-02T06:40:32;5.40;99.90
25582;DHT22;13462;50.764;4.332;2024-03-02T06:42:57;5.40;99.90
25582;DHT22;13462;50.764;4.332;2024-03-02T06:45:23;5.40;99.90
25582;DHT22;13462;50.764;4.332;2024-03-02T06:47:48;5.30;99.90
25582;DHT22;13462;50.764;4.332;2024-03-02T06:50:14;5.50;99.90
25582;DHT22;13462;50.764;4.332;2024-03-02T06:52:39;5.50;99.90
25582;DHT22;13462;50.764;4.332;2024-03-02T06:55:05;5.50;99.90
25582;DHT22;13462;50.764;4.332;2024-03-02T06:57:31;5.50;99.90
25582;DHT22;13462;50.764;4.332;2024-03-02T06:59:57;5.50;99.90
25582;DHT22;13462;50.764;4.332;2024-03-02T07:02:24;5.60;99.90
25582;DHT22;13462;50.764;4.332;2024-03-02T07:04:52;5.70;99.90
25582;DHT22;13462;50.764;4.332;2024-03-02T07:07:18;5.80;99.90
25582;DHT22;13462;50.764;4.332;2024-03-02T07:09:43;5.90;99.90
25582;DHT22;13462;50.764;4.332;2024-03-02T07:12:09;5.90;99.90
25582;DHT22;13462;50.764;4.332;2024-03-02T07:14:35;5.90;99.90
25582;DHT22;13462;50.764;4.332;2024-03-02T07:17:19;5.80;99.90
25582;DHT22;13462;50.764;4.332;2024-03-02T07:19:44;5.90;99.90
25582;DHT22;13462;50.764;4.332;2024-03-02T07:22:10;6.00;99.90
25582;DHT22;13462;50.764;4.332;2024-03-02T07:24:40;6.10;99.90
25582;DHT22;13462;50.764;4.332;2024-03-02T07:27:07;6.10;99.90
25582;DHT22;13462;50.764;4.332;2024-03-02T07:29:33;6.20;99.90
25582;DHT22;13462;50.764;4.332;2024-03-02T07:31:58;6.30;99.90
25582;DHT22;13462;50.764;4.332;2024-03-02T07:34:24;6.70;99.90
25582;DHT22;13462;50.764;4.332;2024-03-02T07:36:50;7.30;99.90
25582;DHT22;13462;50.764;4.332;2024-03-02T07:39:15;7.60;99.90
25582;DHT22;13462;50.764;4.332;2024-03-02T07:41:41;8.00;99.90
25582;DHT22;13462;50.764;4.332;2024-03-02T07:44:07;8.80;99.90
25582;DHT22;13462;50.764;4.332;2024-03-02T07:46:33;9.60;99.90
25582;DHT22;13462;50.764;4.332;2024-03-02T07:48:58;10.30;99.90
25582;DHT22;13462;50.764;4.332;2024-03-02T07:51:24;10.80;99.90
25582;DHT22;13462;50.764;4.332;2024-03-02T07:53:49;11.40;99.90
25582;DHT22;13462;50.764;4.332;2024-03-02T07:56:15;12.20;99.90
25582;DHT22;13462;50.764;4.332;2024-03-02T07:58:48;12.90;99.90
25582;DHT22;13462;50.764;4.332;2024-03-02T08:01:14;13.60;99.90
25582;DHT22;13462;50.764;4.332;2024-03-02T08:03:40;14.10;99.90
25582;DHT22;13462;50.764;4.332;2024-03-02T08:06:06;14.10;99.90
25582;DHT22;13462;50.764;4.332;2024-03-02T08:08:32;14.20;99.90
25582;DHT22;13462;50.764;4.332;2024-03-02T08:10:57;14.50;99.90
25582;DHT22;13462;50.764;4.332;2024-03-02T08:13:23;14.60;99.90
25582;DHT22;13462;50.764;4.332;2024-03-02T08:15:49;14.90;99.90
25582;DHT22;13462;50.764;4.332;2024-03-02T08:18:14;14.60;99.90
25582;DHT22;13462;50.764;4.332;2024-03-02T08:20:40;14.50;99.90
25582;DHT22;13462;50.764;4.332;2024-03-02T08:23:06;15.00;99.90
25582;DHT22;13462;50.764;4.332;2024-03-02T08:25:33;15.20;99.90
25582;DHT22;13462;50.764;4.332;2024-03-02T08:27:59;15.50;99.90
25582;DHT22;13462;50.764;4.332;2024-03-02T08:30:24;16.10;99.90
25582;DHT22;13462;50.764;4.332;2024-03-02T08:32:50;16.00;99.90
25582;DHT22;13462;50.764;4.332;2024-03-02T08:35:15;16.50;99.90
25582;DHT22;13462;50.764;4.332;2024-03-02T08:37:42;16.40;99.90
25582;DHT22;13462;50.764;4.332;2024-03-02T08:40:09;16.00;99.90
25582;DHT22;13462;50.764;4.332;2024-03-02T08:42:35;16.20;99.90
25582;DHT22;13462;50.764;4.332;2024-03-02T08:45:01;16.90;99.90
25582;DHT22;13462;50.764;4.332;2024-03-02T08:47:27;17.60;99.10
25582;DHT22;13462;50.764;4.332;2024-03-02T08:49:53;17.30;98.90
25582;DHT22;13462;50.764;4.332;2024-03-02T08:52:18;16.80;99.10
25582;DHT22;13462;50.764;4.332;2024-03-02T08:54:44;17.10;99.60
25582;DHT22;13462;50.764;4.332;2024-03-02T08:57:10;17.90;97.80
25582;DHT22;13462;50.764;4.332;2024-03-02T08:59:35;17.80;97.80
25582;DHT22;13462;50.764;4.332;2024-03-02T09:02:01;18.10;96.80
25582;DHT22;13462;50.764;4.332;2024-03-02T09:04:27;17.80;97.00
25582;DHT22;13462;50.764;4.332;2024-03-02T09:06:53;17.70;96.70
25582;DHT22;13462;50.764;4.332;2024-03-02T09:09:19;17.30;97.10
25582;DHT22;13462;50.764;4.332;2024-03-02T09:11:46;17.00;97.50
25582;DHT22;13462;50.764;4.332;2024-03-02T09:14:12;17.00;97.50
25582;DHT22;13462;50.764;4.332;2024-03-02T09:16:37;17.10;97.90
25582;DHT22;13462;50.764;4.332;2024-03-02T09:19:03;17.60;97.00
25582;DHT22;13462;50.764;4.332;2024-03-02T09:21:29;17.90;96.20
25582;DHT22;13462;50.764;4.332;2024-03-02T09:23:55;17.70;96.00
25582;DHT22;13462;50.764;4.332;2024-03-02T09:26:22;18.00;97.00
25582;DHT22;13462;50.764;4.332;2024-03-02T09:28:48;18.00;95.40
25582;DHT22;13462;50.764;4.332;2024-03-02T09:31:13;17.60;95.90
25582;DHT22;13462;50.764;4.332;2024-03-02T09:33:39;17.30;96.70
25582;DHT22;13462;50.764;4.332;2024-03-02T09:36:05;16.80;97.70
25582;DHT22;13462;50.764;4.332;2024-03-02T09:38:34;16.50;98.20
25582;DHT22;13462;50.764;4.332;2024-03-02T09:41:00;16.30;98.30
25582;DHT22;13462;50.764;4.332;2024-03-02T09:43:27;15.90;98.80
25582;DHT22;13462;50.764;4.332;2024-03-02T09:45:53;16.10;98.80
25582;DHT22;13462;50.764;4.332;2024-03-02T09:48:18;16.10;99.10
25582;DHT22;13462;50.764;4.332;2024-03-02T09:50:46;16.00;99.90
25582;DHT22;13462;50.764;4.332;2024-03-02T09:53:12;16.30;99.00
25582;DHT22;13462;50.764;4.332;2024-03-02T09:55:39;16.00;99.10
25582;DHT22;13462;50.764;4.332;2024-03-02T09:58:09;16.00;99.20
25582;DHT22;13462;50.764;4.332;2024-03-02T10:00:34;16.30;98.70
25582;DHT22;13462;50.764;4.332;2024-03-02T10:03:00;16.80;97.90
25582;DHT22;13462;50.764;4.332;2024-03-02T10:05:27;17.70;96.50
25582;DHT22;13462;50.764;4.332;2024-03-02T10:08:02;19.30;95.40
25582;DHT22;13462;50.764;4.332;2024-03-02T10:10:38;20.00;93.00
25582;DHT22;13462;50.764;4.332;2024-03-02T10:13:10;20.60;92.30
25582;DHT22;13462;50.764;4.332;2024-03-02T10:15:36;19.20;92.10
25582;DHT22;13462;50.764;4.332;2024-03-02T10:18:03;18.90;93.30
25582;DHT22;13462;50.764;4.332;2024-03-02T10:20:29;19.80;92.70
25582;DHT22;13462;50.764;4.332;2024-03-02T10:22:56;19.70;90.80
25582;DHT22;13462;50.764;4.332;2024-03-02T10:25:32;19.10;92.00
25582;DHT22;13462;50.764;4.332;2024-03-02T10:27:59;18.90;91.70
25582;DHT22;13462;50.764;4.332;2024-03-02T10:30:28;18.40;92.80
25582;DHT22;13462;50.764;4.332;2024-03-02T10:32:55;18.30;92.30
25582;DHT22;13462;50.764;4.332;2024-03-02T10:35:22;18.40;92.50
25582;DHT22;13462;50.764;4.332;2024-03-02T10:37:49;18.60;92.50
25582;DHT22;13462;50.764;4.332;2024-03-02T10:40:15;19.10;91.90
25582;DHT22;13462;50.764;4.332;2024-03-02T10:42:41;18.90;91.40
25582;DHT22;13462;50.764;4.332;2024-03-02T10:45:12;18.60;91.70
25582;DHT22;13462;50.764;4.332;2024-03-02T10:47:40;18.10;92.80
25582;DHT22;13462;50.764;4.332;2024-03-02T10:50:07;17.50;93.70
25582;DHT22;13462;50.764;4.332;2024-03-02T10:52:37;17.60;94.30
25582;DHT22;13462;50.764;4.332;2024-03-02T10:55:05;17.60;93.60
25582;DHT22;13462;50.764;4.332;2024-03-02T10:57:42;17.40;94.30
25582;DHT22;13462;50.764;4.332;2024-03-02T11:00:12;16.60;95.00
25582;DHT22;13462;50.764;4.332;2024-03-02T11:02:54;15.90;96.50
25582;DHT22;13462;50.764;4.332;2024-03-02T11:05:33;15.20;98.10
25582;DHT22;13462;50.764;4.332;2024-03-02T11:08:07;14.70;98.90
25582;DHT22;13462;50.764;4.332;2024-03-02T11:10:58;14.40;99.90
25582;DHT22;13462;50.764;4.332;2024-03-02T11:13:34;14.50;99.60
25582;DHT22;13462;50.764;4.332;2024-03-02T11:16:06;14.50;99.90
25582;DHT22;13462;50.764;4.332;2024-03-02T11:18:36;14.20;99.90
25582;DHT22;13462;50.764;4.332;2024-03-02T11:21:03;14.50;99.90
25582;DHT22;13462;50.764;4.332;2024-03-02T11:23:33;14.50;99.90
25582;DHT22;13462;50.764;4.332;2024-03-02T11:28:43;13.80;99.90
25582;DHT22;13462;50.764;4.332;2024-03-02T11:31:09;13.90;99.90
25582;DHT22;13462;50.764;4.332;2024-03-02T11:33:34;14.00;99.90
25582;DHT22;13462;50.764;4.332;2024-03-02T11:36:00;13.90;99.90
25582;DHT22;13462;50.764;4.332;2024-03-02T11:38:28;13.80;99.90
25582;DHT22;13462;50.764;4.332;2024-03-02T11:40:55;14.00;99.90
25582;DHT22;13462;50.764;4.332;2024-03-02T11:43:20;14.70;99.90
25582;DHT22;13462;50.764;4.332;2024-03-02T11:45:46;15.30;99.90
25582;DHT22;13462;50.764;4.332;2024-03-02T11:48:14;15.80;99.90
25582;DHT22;13462;50.764;4.332;2024-03-02T11:53:09;15.40;99.90
25582;DHT22;13462;50.764;4.332;2024-03-02T11:55:36;15.20;99.90
25582;DHT22;13462;50.764;4.332;2024-03-02T11:58:05;15.20;99.90
25582;DHT22;13462;50.764;4.332;2024-03-02T12:00:32;14.70;99.90
25582;DHT22;13462;50.764;4.332;2024-03-02T12:03:08;14.40;99.90
25582;DHT22;13462;50.764;4.332;2024-03-02T12:05:34;13.90;99.90
25582;DHT22;13462;50.764;4.332;2024-03-02T12:08:05;13.60;99.90
25582;DHT22;13462;50.764;4.332;2024-03-02T12:10:32;13.20;99.90
25582;DHT22;13462;50.764;4.332;2024-03-02T12:13:07;12.80;99.90
25582;DHT22;13462;50.764;4.332;2024-03-02T12:15:36;12.70;99.90
25582;DHT22;13462;50.764;4.332;2024-03-02T12:18:02;13.00;99.90
25582;DHT22;13462;50.764;4.332;2024-03-02T12:20:30;13.50;99.90
25582;DHT22;13462;50.764;4.332;2024-03-02T12:22:59;14.20;99.90
25582;DHT22;13462;50.764;4.332;2024-03-02T12:25:25;15.40;99.90
25582;DHT22;13462;50.764;4.332;2024-03-02T12:27:56;15.70;99.90
25582;DHT22;13462;50.764;4.332;2024-03-02T12:30:22;15.90;99.90
25582;DHT22;13462;50.764;4.332;2024-03-02T12:32:49;15.40;99.90
25582;DHT22;13462;50.764;4.332;2024-03-02T12:35:15;14.80;99.90
25582;DHT22;13462;50.764;4.332;2024-03-02T12:37:50;14.50;99.90
25582;DHT22;13462;50.764;4.332;2024-03-02T12:40:17;15.00;99.90
25582;DHT22;13462;50.764;4.332;2024-03-02T12:42:44;15.70;99.90
25582;DHT22;13462;50.764;4.332;2024-03-02T12:45:11;15.50;99.90
25582;DHT22;13462;50.764;4.332;2024-03-02T12:47:37;15.30;99.90
25582;DHT22;13462;50.764;4.332;2024-03-02T12:50:04;15.40;99.90
25582;DHT22;13462;50.764;4.332;2024-03-02T12:52:30;15.90;99.90
25582;DHT22;13462;50.764;4.332;2024-03-02T12:55:01;16.60;99.60
25582;DHT22;13462;50.764;4.332;2024-03-02T12:57:29;16.70;98.20
25582;DHT22;13462;50.764;4.332;2024-03-02T13:00:13;16.50;98.00
25582;DHT22;13462;50.764;4.332;2024-03-02T13:02:42;15.90;99.10
25582;DHT22;13462;50.764;4.332;2024-03-02T13:05:08;15.60;99.90
25582;DHT22;13462;50.764;4.332;2024-03-02T13:07:37;15.00;99.70
25582;DHT22;13462;50.764;4.332;2024-03-02T13:10:04;14.70;99.90
25582;DHT22;13462;50.764;4.332;2024-03-02T13:12:30;14.40;99.90
25582;DHT22;13462;50.764;4.332;2024-03-02T13:14:58;14.00;99.90
25582;DHT22;13462;50.764;4.332;2024-03-02T13:17:24;13.90;99.90
25582;DHT22;13462;50.764;4.332;2024-03-02T13:19:57;13.90;99.90
25582;DHT22;13462;50.764;4.332;2024-03-02T13:22:23;14.00;99.90
25582;DHT22;13462;50.764;4.332;2024-03-02T13:24:50;13.80;99.90
25582;DHT22;13462;50.764;4.332;2024-03-02T13:27:16;13.70;99.90
25582;DHT22;13462;50.764;4.332;2024-03-02T13:29:42;13.50;99.90
25582;DHT22;13462;50.764;4.332;2024-03-02T13:32:08;13.30;99.90
25582;DHT22;13462;50.764;4.332;2024-03-02T13:34:35;13.30;99.90
25582;DHT22;13462;50.764;4.332;2024-03-02T13:37:02;13.20;99.90
25582;DHT22;13462;50.764;4.332;2024-03-02T13:39:28;13.20;99.90
25582;DHT22;13462;50.764;4.332;2024-03-02T13:41:57;13.10;99.90
25582;DHT22;13462;50.764;4.332;2024-03-02T13:44:29;13.10;99.90
25582;DHT22;13462;50.764;4.332;2024-03-02T13:46:55;13.10;99.90
25582;DHT22;13462;50.764;4.332;2024-03-02T13:49:20;13.10;99.90
25582;DHT22;13462;50.764;4.332;2024-03-02T13:51:46;13.10;99.90
25582;DHT22;13462;50.764;4.332;2024-03-02T13:54:11;13.10;99.90
25582;DHT22;13462;50.764;4.332;2024-03-02T13:56:37;13.00;99.90
25582;DHT22;13462;50.764;4.332;2024-03-02T13:59:04;12.90;99.90
25582;DHT22;13462;50.764;4.332;2024-03-02T14:01:31;12.80;99.90
25582;DHT22;13462;50.764;4.332;2024-03-02T14:03:58;12.80;99.90
25582;DHT22;13462;50.764;4.332;2024-03-02T14:06:23;12.70;99.90
25582;DHT22;13462;50.764;4.332;2024-03-02T14:08:51;12.70;99.90
25582;DHT22;13462;50.764;4.332;2024-03-02T14:11:17;12.60;99.90
25582;DHT22;13462;50.764;4.332;2024-03-02T14:13:43;12.50;99.90
25582;DHT22;13462;50.764;4.332;2024-03-02T14:16:10;12.40;99.90
25582;DHT22;13462;50.764;4.332;2024-03-02T14:18:36;12.40;99.90
25582;DHT22;13462;50.764;4.332;2024-03-02T14:21:02;12.30;99.90
25582;DHT22;13462;50.764;4.332;2024-03-02T14:23:29;12.30;99.90
25582;DHT22;13462;50.764;4.332;2024-03-02T14:25:55;12.40;99.90
25582;DHT22;13462;50.764;4.332;2024-03-02T14:28:21;12.40;99.90
25582;DHT22;13462;50.764;4.332;2024-03-02T14:30:46;12.40;99.90
25582;DHT22;13462;50.764;4.332;2024-03-02T14:33:13;12.40;99.90
25582;DHT22;13462;50.764;4.332;2024-03-02T14:35:39;12.60;99.90
25582;DHT22;13462;50.764;4.332;2024-03-02T14:38:04;12.50;99.90
25582;DHT22;13462;50.764;4.332;2024-03-02T14:40:30;12.60;99.90
25582;DHT22;13462;50.764;4.332;2024-03-02T14:42:56;12.60;99.90
25582;DHT22;13462;50.764;4.332;2024-03-02T14:45:21;12.60;99.90
25582;DHT22;13462;50.764;4.332;2024-03-02T14:47:49;12.70;99.90
25582;DHT22;13462;50.764;4.332;2024-03-02T14:50:14;12.70;99.90
25582;DHT22;13462;50.764;4.332;2024-03-02T14:52:41;12.70;99.90
25582;DHT22;13462;50.764;4.332;2024-03-02T14:55:07;12.80;99.90
25582;DHT22;13462;50.764;4.332;2024-03-02T14:57:33;12.70;99.90
25582;DHT22;13462;50.764;4.332;2024-03-02T14:59:58;12.60;99.90
25582;DHT22;13462;50.764;4.332;2024-03-02T15:02:24;12.40;99.90
25582;DHT22;13462;50.764;4.332;2024-03-02T15:04:50;12.40;99.90
25582;DHT22;13462;50.764;4.332;2024-03-02T15:07:16;12.50;99.90
25582;DHT22;13462;50.764;4.332;2024-03-02T15:09:41;12.40;99.90
25582;DHT22;13462;50.764;4.332;2024-03-02T15:12:07;12.40;99.90
25582;DHT22;13462;50.764;4.332;2024-03-02T15:14:38;12.40;99.90
25582;DHT22;13462;50.764;4.332;2024-03-02T15:17:12;12.20;99.90
25582;DHT22;13462;50.764;4.332;2024-03-02T15:19:38;12.10;99.90
25582;DHT22;13462;50.764;4.332;2024-03-02T15:22:03;12.10;99.90
25582;DHT22;13462;50.764;4.332;2024-03-02T15:24:29;12.00;99.90
25582;DHT22;13462;50.764;4.332;2024-03-02T15:26:54;12.00;99.90
25582;DHT22;13462;50.764;4.332;2024-03-02T15:29:20;11.90;99.90
25582;DHT22;13462;50.764;4.332;2024-03-02T15:31:47;12.00;99.90
25582;DHT22;13462;50.764;4.332;2024-03-02T15:34:13;11.90;99.90
25582;DHT22;13462;50.764;4.332;2024-03-02T15:36:38;12.00;99.90
25582;DHT22;13462;50.764;4.332;2024-03-02T15:39:04;12.10;99.90
25582;DHT22;13462;50.764;4.332;2024-03-02T15:41:34;12.10;99.90